Galatia, New York
Current Conditions -  °F | °C
As of 7:55 AM on Saturday 25 Oct 2014 (Local Time) from KN03 Reporting Station
Overcast Overcast  
Wind Chill: 37°   Ceiling: 5000
Heat Index: 37°   Visibility: 7mi
Dew Point: 37°   Wind: 0mph
Humidity: 100%   Direction: NA
Pressure: 29.86"   Gusts: NA
Location:  42.4596°N, 76.0658°W
Report Text: KN03 251155Z AUTO 00000KT 7SM OVC050 03/03 A2986 RMK AO2
Loading
Personal Weather Stations






























Interactive Weather Map
Tropical Storm Tracking
New forecast layout! Learn more

10-Day Weather Forecast

Advertisements
Track Severe Weather on mobile